createdAt,value
2018-01-21T00:02:25.065Z,87.18
2018-01-21T00:04:53.757Z,86.71
2018-01-21T00:07:22.047Z,86.35
2018-01-21T00:09:50.340Z,85.89
2018-01-21T00:12:18.653Z,85.72
2018-01-21T00:14:47.716Z,85.63
2018-01-21T00:17:15.995Z,85.64
2018-01-21T00:19:44.305Z,85.42
2018-01-21T00:22:31.001Z,85.08
2018-01-21T00:25:00.069Z,84.73
2018-01-21T00:27:28.365Z,84.56
2018-01-21T00:29:56.650Z,84.39
2018-01-21T00:32:25.711Z,84.21
2018-01-21T00:34:54.772Z,83.80
2018-01-21T00:37:23.820Z,83.67
2018-01-21T00:39:52.165Z,83.69
2018-01-21T00:42:20.464Z,83.67
2018-01-21T00:44:48.767Z,83.69
2018-01-21T00:47:17.055Z,83.48
2018-01-21T00:49:45.349Z,83.20
2018-01-21T00:52:13.671Z,83.22
2018-01-21T00:54:41.971Z,82.95
2018-01-21T00:57:10.258Z,82.81
2018-01-21T00:59:38.615Z,82.80
2018-01-21T01:02:06.914Z,82.73
2018-01-21T01:04:35.210Z,82.54
2018-01-21T01:07:03.513Z,82.49
2018-01-21T01:09:31.802Z,82.31
2018-01-21T01:12:00.101Z,82.24
2018-01-21T01:14:29.150Z,82.20
2018-01-21T01:16:57.490Z,82.11
2018-01-21T01:19:25.787Z,82.09
2018-01-21T01:21:54.266Z,81.80
2018-01-21T01:24:22.556Z,81.33
2018-01-21T01:26:50.851Z,80.86
2018-01-21T01:29:19.183Z,80.62
2018-01-21T01:31:48.256Z,80.39
2018-01-21T01:34:16.576Z,80.31
2018-01-21T01:36:44.888Z,80.30
2018-01-21T01:39:13.200Z,80.04
2018-01-21T01:41:41.515Z,79.99
2018-01-21T01:44:10.599Z,79.83
2018-01-21T01:46:39.726Z,79.65
2018-01-21T01:49:08.062Z,79.54
2018-01-21T01:51:36.400Z,79.49
2018-01-21T01:54:04.710Z,79.38
2018-01-21T01:56:33.033Z,79.46
2018-01-21T01:59:01.349Z,79.58
2018-01-21T02:01:29.660Z,79.62
2018-01-21T02:03:57.970Z,79.65
2018-01-21T02:06:26.596Z,79.54
2018-01-21T02:08:54.892Z,79.59
2018-01-21T02:11:23.204Z,79.81
2018-01-21T02:13:51.508Z,79.97
2018-01-21T02:16:20.628Z,80.00
2018-01-21T02:18:48.929Z,79.70
2018-01-21T02:21:17.233Z,79.61
2018-01-21T02:23:45.531Z,79.74
2018-01-21T02:26:13.836Z,79.73
2018-01-21T02:28:42.903Z,79.47
2018-01-21T02:31:11.274Z,79.21
2018-01-21T02:33:39.592Z,78.96
2018-01-21T02:36:07.897Z,78.86
2018-01-21T02:38:36.193Z,79.06
2018-01-21T02:41:04.488Z,79.25
2018-01-21T02:43:32.792Z,78.94
2018-01-21T02:46:01.104Z,78.98
2018-01-21T02:48:30.185Z,78.95
2018-01-21T02:50:58.494Z,79.07
2018-01-21T02:53:26.830Z,79.31
2018-01-21T02:55:55.138Z,79.64
2018-01-21T02:58:23.460Z,79.66
2018-01-21T03:00:51.778Z,79.40
2018-01-21T03:03:20.154Z,79.10
2018-01-21T03:05:49.242Z,78.53
2018-01-21T03:08:17.556Z,78.48
2018-01-21T03:10:45.912Z,78.04
2018-01-21T03:13:14.234Z,77.89
2018-01-21T03:15:43.298Z,77.68
2018-01-21T03:18:11.594Z,77.67
2018-01-21T03:20:40.004Z,77.69
2018-01-21T03:23:08.324Z,77.69
2018-01-21T03:25:36.634Z,77.77
2018-01-21T03:28:04.939Z,77.83
2018-01-21T03:30:33.250Z,77.91
2018-01-21T03:33:01.554Z,78.08
2018-01-21T03:35:29.999Z,78.20
2018-01-21T03:37:59.058Z,78.32
2018-01-21T03:40:27.344Z,78.37
2018-01-21T03:42:55.656Z,78.48
2018-01-21T03:45:24.730Z,78.52
2018-01-21T03:47:53.892Z,78.62
2018-01-21T03:50:22.178Z,78.63
2018-01-21T03:52:50.754Z,78.64
2018-01-21T03:55:19.042Z,78.63
2018-01-21T03:57:47.329Z,78.65
2018-01-21T04:00:15.659Z,78.49
2018-01-21T04:02:44.731Z,78.17
2018-01-21T04:05:13.034Z,78.04
2018-01-21T04:07:41.346Z,78.07
2018-01-21T04:10:09.642Z,78.11
2018-01-21T04:12:37.934Z,77.95
2018-01-21T04:15:06.223Z,77.77
2018-01-21T04:17:34.510Z,77.77
2018-01-21T04:20:02.807Z,77.91
2018-01-21T04:22:31.116Z,77.91
2018-01-21T04:25:00.170Z,77.70
2018-01-21T04:27:28.480Z,77.45
2018-01-21T04:29:56.780Z,77.21
2018-01-21T04:32:25.858Z,77.12
2018-01-21T04:34:54.170Z,77.16
2018-01-21T04:37:23.902Z,77.19
2018-01-21T04:39:53.066Z,77.24
2018-01-21T04:42:22.151Z,77.14
2018-01-21T04:44:50.469Z,76.85
2018-01-21T04:47:18.894Z,76.63
2018-01-21T04:49:47.194Z,76.40
2018-01-21T04:52:15.517Z,76.22
2018-01-21T04:54:44.594Z,76.17
2018-01-21T04:57:12.869Z,76.27
2018-01-21T04:59:41.950Z,76.33
2018-01-21T05:02:10.236Z,76.45
2018-01-21T05:04:39.223Z,76.23
2018-01-21T05:07:07.552Z,76.27
2018-01-21T05:09:35.864Z,76.26
2018-01-21T05:12:04.172Z,76.36
2018-01-21T05:14:32.465Z,76.29
2018-01-21T05:17:00.767Z,76.29
2018-01-21T05:19:29.824Z,76.50
2018-01-21T05:21:58.143Z,76.60
2018-01-21T05:24:27.236Z,76.80
2018-01-21T05:26:55.603Z,77.02
2018-01-21T05:29:23.911Z,77.11
2018-01-21T05:31:52.975Z,77.29
2018-01-21T05:34:21.321Z,77.41
2018-01-21T05:36:49.636Z,77.46
2018-01-21T05:39:17.944Z,77.62
2018-01-21T05:41:46.261Z,77.65
2018-01-21T05:44:14.586Z,77.79
2018-01-21T05:46:42.899Z,77.82
2018-01-21T05:49:11.964Z,77.82
2018-01-21T05:51:40.269Z,77.87
2018-01-21T05:54:08.566Z,77.87
2018-01-21T05:56:37.673Z,77.94
2018-01-21T05:59:06.728Z,78.00
2018-01-21T06:01:35.020Z,78.06
2018-01-21T06:04:03.322Z,78.09
2018-01-21T06:06:32.382Z,78.09
2018-01-21T06:09:00.691Z,78.15
2018-01-21T06:11:28.995Z,78.18
2018-01-21T06:13:57.312Z,78.13
2018-01-21T06:16:25.605Z,78.13
2018-01-21T06:18:53.916Z,78.12
2018-01-21T06:21:22.217Z,78.10
2018-01-21T06:23:51.296Z,78.08
2018-01-21T06:26:19.610Z,78.05
2018-01-21T06:28:47.932Z,77.94
2018-01-21T06:31:16.253Z,77.88
2018-01-21T06:33:44.664Z,77.91
2018-01-21T06:36:12.982Z,77.97
2018-01-21T06:38:41.281Z,78.03
2018-01-21T06:41:09.598Z,78.06
2018-01-21T06:43:37.918Z,77.96
2018-01-21T06:46:06.216Z,77.91
2018-01-21T06:48:34.539Z,77.99
2018-01-21T06:51:02.852Z,77.96
2018-01-21T06:53:31.149Z,77.92
2018-01-21T06:55:59.473Z,77.79
2018-01-21T06:58:28.999Z,77.70
2018-01-21T07:00:57.357Z,77.75
2018-01-21T07:03:25.624Z,77.90
2018-01-21T07:05:53.936Z,77.83
2018-01-21T07:08:22.236Z,77.77
2018-01-21T07:10:50.533Z,77.84
2018-01-21T07:13:18.832Z,77.93
2018-01-21T07:15:47.135Z,77.91
2018-01-21T07:18:16.247Z,77.85
2018-01-21T07:20:45.305Z,77.71
2018-01-21T07:23:13.613Z,77.44
2018-01-21T07:25:41.944Z,77.18
2018-01-21T07:28:10.246Z,77.02
2018-01-21T07:30:38.553Z,77.07
2018-01-21T07:33:07.103Z,77.23
2018-01-21T07:35:35.407Z,77.46
2018-01-21T07:38:03.703Z,77.77
2018-01-21T07:40:32.117Z,78.18
2018-01-21T07:43:00.422Z,78.25
2018-01-21T07:45:28.813Z,78.19
2018-01-21T07:47:57.179Z,78.41
2018-01-21T07:50:25.469Z,78.74
2018-01-21T07:52:53.755Z,78.76
2018-01-21T07:55:22.067Z,78.67
2018-01-21T07:57:50.381Z,78.50
2018-01-21T08:00:19.462Z,78.16
2018-01-21T08:02:47.776Z,78.15
2018-01-21T08:05:16.085Z,78.30
2018-01-21T08:07:44.403Z,78.51
2018-01-21T08:10:13.505Z,78.76
2018-01-21T08:12:42.586Z,78.90
2018-01-21T08:15:10.888Z,78.98
2018-01-21T08:17:39.181Z,79.07
2018-01-21T08:20:08.289Z,79.07
2018-01-21T08:22:37.367Z,79.05
2018-01-21T08:25:05.682Z,79.12
2018-01-21T08:27:34.008Z,79.32
2018-01-21T08:30:02.311Z,79.32
2018-01-21T08:32:31.382Z,79.27
2018-01-21T08:35:05.109Z,79.25
2018-01-21T08:37:38.964Z,79.12
2018-01-21T08:40:12.796Z,78.98
2018-01-21T08:42:41.097Z,78.92
2018-01-21T08:45:09.421Z,78.71
2018-01-21T08:47:37.715Z,78.56
2018-01-21T08:50:06.012Z,78.49
2018-01-21T08:52:34.317Z,78.33
2018-01-21T08:55:02.634Z,78.08
2018-01-21T08:57:31.696Z,77.89
2018-01-21T09:00:00.118Z,77.75
2018-01-21T09:02:29.179Z,77.26
2018-01-21T09:04:58.207Z,76.93
2018-01-21T09:07:26.522Z,76.66
2018-01-21T09:09:54.799Z,76.60
2018-01-21T09:12:23.106Z,76.46
2018-01-21T09:14:51.408Z,76.30
2018-01-21T09:17:19.734Z,76.01
2018-01-21T09:19:48.050Z,75.99
2018-01-21T09:22:16.347Z,75.99
2018-01-21T09:24:46.266Z,75.78
2018-01-21T09:27:14.574Z,75.68
2018-01-21T09:29:43.631Z,75.63
2018-01-21T09:32:11.990Z,75.34
2018-01-21T09:34:40.312Z,75.02
2018-01-21T09:37:08.637Z,74.83
2018-01-21T09:39:36.941Z,74.77
2018-01-21T09:42:05.233Z,74.50
2018-01-21T09:44:33.552Z,74.30
2018-01-21T09:47:01.876Z,74.12
2018-01-21T09:49:30.165Z,73.60
2018-01-21T09:51:58.463Z,73.36
2018-01-21T09:54:26.761Z,72.98
2018-01-21T09:56:55.391Z,72.91
2018-01-21T09:59:24.514Z,72.83
2018-01-21T10:01:52.817Z,72.72
2018-01-21T10:04:21.125Z,72.62
2018-01-21T10:06:49.920Z,72.37
2018-01-21T10:09:18.259Z,72.03
2018-01-21T10:11:46.550Z,71.78
2018-01-21T10:14:14.890Z,71.32
2018-01-21T10:16:44.010Z,71.18
2018-01-21T10:19:12.300Z,71.28
2018-01-21T10:21:40.881Z,71.04
2018-01-21T10:24:09.268Z,70.75
2018-01-21T10:26:37.560Z,70.71
2018-01-21T10:29:05.860Z,70.58
2018-01-21T10:31:34.157Z,70.81
2018-01-21T10:34:02.486Z,70.75
2018-01-21T10:36:30.818Z,70.41
2018-01-21T10:38:59.215Z,70.31
2018-01-21T10:41:27.530Z,70.02
2018-01-21T10:43:55.815Z,69.47
2018-01-21T10:46:24.114Z,69.55
2018-01-21T10:48:52.421Z,69.58
2018-01-21T10:51:20.751Z,69.26
2018-01-21T10:53:49.066Z,68.68
2018-01-21T10:56:17.385Z,68.42
2018-01-21T10:58:46.467Z,68.50
2018-01-21T11:01:14.764Z,68.38
2018-01-21T11:03:43.067Z,68.54
2018-01-21T11:06:12.122Z,68.58
2018-01-21T11:08:40.463Z,68.70
2018-01-21T11:11:08.759Z,68.90
2018-01-21T11:13:37.062Z,68.56
2018-01-21T11:16:05.363Z,67.86
2018-01-21T11:18:33.651Z,67.37
2018-01-21T11:21:02.001Z,67.00
2018-01-21T11:23:30.353Z,66.89
2018-01-21T11:25:58.707Z,66.95
2018-01-21T11:28:27.783Z,66.92
2018-01-21T11:30:56.079Z,66.87
2018-01-21T11:33:24.369Z,66.58
2018-01-21T11:35:53.507Z,66.44
2018-01-21T11:38:21.803Z,65.88
2018-01-21T11:40:50.107Z,65.58
2018-01-21T11:43:18.400Z,65.25
2018-01-21T11:45:46.710Z,65.00
2018-01-21T11:48:15.009Z,64.46
2018-01-21T11:50:43.385Z,64.25
2018-01-21T11:53:11.717Z,64.06
2018-01-21T11:55:40.011Z,64.02
2018-01-21T11:58:08.293Z,63.65
2018-01-21T12:00:36.600Z,63.22
2018-01-21T12:03:04.893Z,63.19
2018-01-21T12:05:33.177Z,62.61
2018-01-21T12:08:01.580Z,62.26
2018-01-21T12:10:29.871Z,61.27
2018-01-21T12:12:58.293Z,60.47
2018-01-21T12:15:27.379Z,60.31
2018-01-21T12:17:55.663Z,60.10
2018-01-21T12:20:23.960Z,58.84
2018-01-21T12:22:53.053Z,59.25
2018-01-21T12:25:22.120Z,59.71
2018-01-21T12:27:50.668Z,59.74
2018-01-21T12:30:18.977Z,59.38
2018-01-21T12:32:47.261Z,59.49
2018-01-21T12:35:15.923Z,58.85
2018-01-21T12:37:44.235Z,59.23
2018-01-21T12:40:12.547Z,59.38
2018-01-21T12:42:40.847Z,58.85
2018-01-21T12:45:09.912Z,58.65
2018-01-21T12:47:38.224Z,58.29
2018-01-21T12:50:06.543Z,58.66
2018-01-21T12:52:34.843Z,58.72
2018-01-21T12:55:03.129Z,59.12
2018-01-21T12:57:31.418Z,59.28
2018-01-21T12:59:59.705Z,59.65
2018-01-21T13:02:28.086Z,59.88
2018-01-21T13:04:56.460Z,59.86
2018-01-21T13:07:24.757Z,59.51
2018-01-21T13:09:53.050Z,59.46
2018-01-21T13:12:22.668Z,59.31
2018-01-21T13:14:51.722Z,59.80
2018-01-21T13:17:20.778Z,59.85
2018-01-21T13:19:49.072Z,60.05
2018-01-21T13:22:17.451Z,60.12
2018-01-21T13:24:45.757Z,59.95
2018-01-21T13:27:14.048Z,59.58
2018-01-21T13:29:42.373Z,59.57
2018-01-21T13:32:11.434Z,59.61
2018-01-21T13:34:39.734Z,59.24
2018-01-21T13:37:08.015Z,58.67
2018-01-21T13:39:36.317Z,57.91
2018-01-21T13:42:05.381Z,58.59
2018-01-21T13:44:33.669Z,58.78
2018-01-21T13:47:01.949Z,58.83
2018-01-21T13:49:30.261Z,59.12
2018-01-21T13:51:59.312Z,59.16
2018-01-21T13:54:27.724Z,59.08
2018-01-21T13:56:56.033Z,59.17
2018-01-21T13:59:24.310Z,59.39
2018-01-21T14:01:53.394Z,59.18
2018-01-21T14:04:22.254Z,59.50
2018-01-21T14:06:50.545Z,59.72
2018-01-21T14:09:18.853Z,59.64
2018-01-21T14:11:47.898Z,59.61
2018-01-21T14:14:16.180Z,59.92
2018-01-21T14:16:45.396Z,59.99
2018-01-21T14:19:13.742Z,59.89
2018-01-21T14:21:42.026Z,59.82
2018-01-21T14:24:10.331Z,60.00
2018-01-21T14:26:38.620Z,59.75
2018-01-21T14:29:06.899Z,59.81
2018-01-21T14:31:35.186Z,59.90
2018-01-21T14:34:03.473Z,60.42
2018-01-21T14:36:31.766Z,59.66
2018-01-21T14:39:00.072Z,59.46
2018-01-21T14:41:29.110Z,59.29
2018-01-21T14:43:57.403Z,59.41
2018-01-21T14:46:25.694Z,59.88
2018-01-21T14:48:53.987Z,60.17
2018-01-21T14:51:22.314Z,60.71
2018-01-21T14:53:50.586Z,61.18
2018-01-21T14:56:18.941Z,61.73
2018-01-21T14:58:48.798Z,62.10
2018-01-21T15:01:17.090Z,62.61
2018-01-21T15:03:45.372Z,62.95
2018-01-21T15:06:13.666Z,63.34
2018-01-21T15:08:41.954Z,63.72
2018-01-21T15:11:10.241Z,63.96
2018-01-21T15:13:38.544Z,64.17
2018-01-21T15:16:06.840Z,64.47
2018-01-21T15:18:35.938Z,64.98
2018-01-21T15:21:04.222Z,65.23
2018-01-21T15:23:33.275Z,65.42
2018-01-21T15:26:01.646Z,65.82
2018-01-21T15:28:29.956Z,65.95
2018-01-21T15:30:58.245Z,66.08
2018-01-21T15:33:26.534Z,66.72
2018-01-21T15:35:54.842Z,67.10
2018-01-21T15:38:23.232Z,67.18
2018-01-21T15:40:51.590Z,67.50
2018-01-21T15:43:20.646Z,67.63
2018-01-21T15:45:48.950Z,67.90
2018-01-21T15:48:18.030Z,68.25
2018-01-21T15:50:46.333Z,68.10
2018-01-21T15:53:14.654Z,68.04
2018-01-21T15:55:43.038Z,68.11
2018-01-21T15:58:11.330Z,68.14
2018-01-21T16:00:39.610Z,68.36
2018-01-21T16:03:07.892Z,68.32
2018-01-21T16:05:36.175Z,68.13
2018-01-21T16:08:04.454Z,68.75
2018-01-21T16:10:32.762Z,68.74
2018-01-21T16:13:01.129Z,68.87
2018-01-21T16:15:29.391Z,68.87
2018-01-21T16:17:57.737Z,68.92
2018-01-21T16:20:26.646Z,68.90
2018-01-21T16:22:55.704Z,68.89
2018-01-21T16:25:23.994Z,69.16
2018-01-21T16:27:52.310Z,69.02
2018-01-21T16:30:21.426Z,69.31
2018-01-21T16:32:49.722Z,69.41
2018-01-21T16:35:18.026Z,69.52
2018-01-21T16:38:04.034Z,69.61
2018-01-21T16:40:32.354Z,69.89
2018-01-21T16:43:00.742Z,70.12
2018-01-21T16:45:29.030Z,70.37
2018-01-21T16:47:57.344Z,70.61
2018-01-21T16:50:25.632Z,70.93
2018-01-21T16:52:53.952Z,71.18
2018-01-21T16:55:22.261Z,71.35
2018-01-21T16:57:50.567Z,71.76
2018-01-21T17:00:18.877Z,72.06
2018-01-21T17:02:47.193Z,72.00
2018-01-21T17:05:15.478Z,72.27
2018-01-21T17:07:43.765Z,72.50
2018-01-21T17:10:12.068Z,72.53
2018-01-21T17:12:40.394Z,72.82
2018-01-21T17:15:09.435Z,72.89
2018-01-21T17:17:37.710Z,73.07
2018-01-21T17:20:06.012Z,73.57
2018-01-21T17:22:34.300Z,73.66
2018-01-21T17:25:02.586Z,73.62
2018-01-21T17:27:30.966Z,73.74
2018-01-21T17:29:59.260Z,73.79
2018-01-21T17:32:27.546Z,73.89
2018-01-21T17:34:55.864Z,74.22
2018-01-21T17:37:24.152Z,74.18
2018-01-21T17:39:52.530Z,74.14
2018-01-21T17:42:20.840Z,74.11
2018-01-21T17:44:49.144Z,74.06
2018-01-21T17:47:17.516Z,74.05
2018-01-21T17:49:45.805Z,74.10
2018-01-21T17:52:14.176Z,74.20
2018-01-21T17:54:42.650Z,74.71
2018-01-21T17:57:10.949Z,74.66
2018-01-21T17:59:39.314Z,74.60
2018-01-21T18:02:07.625Z,74.43
2018-01-21T18:04:35.914Z,74.49
2018-01-21T18:07:04.311Z,74.45
2018-01-21T18:09:33.375Z,74.66
2018-01-21T18:12:02.440Z,74.72
2018-01-21T18:14:30.730Z,74.65
2018-01-21T18:16:59.037Z,74.89
2018-01-21T18:19:27.343Z,74.96
2018-01-21T18:21:55.679Z,74.81
2018-01-21T18:24:23.973Z,74.59
2018-01-21T18:26:52.270Z,74.58
2018-01-21T18:29:20.584Z,74.72
2018-01-21T18:31:49.644Z,74.71
2018-01-21T18:34:17.981Z,74.72
2018-01-21T18:36:46.297Z,74.71
2018-01-21T18:39:15.375Z,74.93
2018-01-21T18:41:43.685Z,75.14
2018-01-21T18:44:13.051Z,75.63
2018-01-21T18:46:42.674Z,75.38
2018-01-21T18:49:13.159Z,75.22
2018-01-21T18:51:42.500Z,75.29
2018-01-21T18:54:10.903Z,75.29
2018-01-21T18:56:39.294Z,75.37
2018-01-21T18:59:07.952Z,75.26
2018-01-21T19:01:36.258Z,75.19
2018-01-21T19:04:04.620Z,75.08
2018-01-21T19:06:33.513Z,75.09
2018-01-21T19:09:01.905Z,75.18
2018-01-21T19:11:30.199Z,75.16
2018-01-21T19:13:58.552Z,75.11
2018-01-21T19:16:26.820Z,75.02
2018-01-21T19:18:55.884Z,75.67
2018-01-21T19:21:24.186Z,75.54
2018-01-21T19:23:52.560Z,75.32
2018-01-21T19:26:20.907Z,75.65
2018-01-21T19:28:49.241Z,75.37
2018-01-21T19:31:19.181Z,75.56
2018-01-21T19:33:48.366Z,75.23
2018-01-21T19:36:16.741Z,75.10
2018-01-21T19:38:50.586Z,75.04
2018-01-21T19:44:20.788Z,74.65
2018-01-21T19:46:49.900Z,74.92
2018-01-21T19:49:18.216Z,75.30
2018-01-21T19:51:46.576Z,75.14
2018-01-21T19:54:14.944Z,75.33
2018-01-21T19:56:43.296Z,75.04
2018-01-21T19:59:11.620Z,74.75
2018-01-21T20:01:39.981Z,74.78
2018-01-21T20:04:08.300Z,74.75
2018-01-21T20:06:36.681Z,74.70
2018-01-21T20:09:05.591Z,74.72
2018-01-21T20:11:33.984Z,74.98
2018-01-21T20:14:02.354Z,74.92
2018-01-21T20:16:30.726Z,74.84
2018-01-21T20:18:59.054Z,74.74
2018-01-21T20:21:27.689Z,74.68
2018-01-21T20:23:56.938Z,74.85
2018-01-21T20:26:26.101Z,75.09
2018-01-21T20:28:54.408Z,75.32
2018-01-21T20:31:22.711Z,75.59
2018-01-21T20:33:51.324Z,75.79
2018-01-21T20:36:19.975Z,76.07
2018-01-21T20:38:49.436Z,76.18
2018-01-21T20:41:18.639Z,76.39
2018-01-21T20:43:47.660Z,76.46
2018-01-21T20:46:17.734Z,76.69
2018-01-21T20:48:47.028Z,77.05
2018-01-21T20:51:22.661Z,77.24
2018-01-21T20:53:56.635Z,77.27
2018-01-21T20:56:25.048Z,77.39
2018-01-21T20:58:53.441Z,77.75
2018-01-21T21:01:21.776Z,77.84
2018-01-21T21:03:50.182Z,77.93
2018-01-21T21:06:18.593Z,78.17
2018-01-21T21:08:49.245Z,78.42
2018-01-21T21:11:17.613Z,78.59
2018-01-21T21:13:47.433Z,78.65
2018-01-21T21:16:16.070Z,78.81
2018-01-21T21:18:45.467Z,79.00
2018-01-21T21:21:14.536Z,79.20
2018-01-21T21:23:43.868Z,79.12
2018-01-21T21:26:12.369Z,79.21
2018-01-21T21:28:40.964Z,79.31
2018-01-21T21:31:09.557Z,79.49
2018-01-21T21:33:38.217Z,79.79
2018-01-21T21:36:06.692Z,80.17
2018-01-21T21:38:36.129Z,80.53
2018-01-21T21:41:04.824Z,80.77
2018-01-21T21:43:33.192Z,80.97
2018-01-21T21:46:01.554Z,81.02
2018-01-21T21:48:30.697Z,81.38
2018-01-21T21:50:59.025Z,81.38
2018-01-21T21:53:28.093Z,81.65
2018-01-21T21:55:56.427Z,81.84
2018-01-21T21:58:25.285Z,82.17
2018-01-21T22:00:53.626Z,82.30
2018-01-21T22:03:21.985Z,82.31
2018-01-21T22:05:50.293Z,82.64
2018-01-21T22:08:18.621Z,82.82
2018-01-21T22:10:47.753Z,83.20
2018-01-21T22:13:18.450Z,83.47
2018-01-21T22:15:47.587Z,83.51
2018-01-21T22:18:15.919Z,83.52
2018-01-21T22:20:44.247Z,83.71
2018-01-21T22:23:12.605Z,84.00
2018-01-21T22:25:40.951Z,84.17
2018-01-21T22:28:09.292Z,84.16
2018-01-21T22:30:37.692Z,84.35
2018-01-21T22:33:06.025Z,84.47
2018-01-21T22:35:35.199Z,84.63
2018-01-21T22:38:04.369Z,84.57
2018-01-21T22:40:32.703Z,84.60
2018-01-21T22:43:01.742Z,84.62
2018-01-21T22:45:30.767Z,84.79
2018-01-21T22:47:59.971Z,85.04
2018-01-21T22:50:28.313Z,85.19
2018-01-21T22:52:57.481Z,85.33
2018-01-21T22:55:25.839Z,85.50
2018-01-21T22:57:54.286Z,85.56
2018-01-21T23:00:22.993Z,85.66
2018-01-21T23:02:51.384Z,85.81
2018-01-21T23:05:19.723Z,85.87
2018-01-21T23:07:49.754Z,86.08
2018-01-21T23:10:18.879Z,86.21
2018-01-21T23:12:47.227Z,86.37
2018-01-21T23:15:15.555Z,86.62
2018-01-21T23:17:43.863Z,86.76
2018-01-21T23:20:12.162Z,86.97
2018-01-21T23:22:41.029Z,87.00
2018-01-21T23:25:10.407Z,87.16
2018-01-21T23:27:38.808Z,87.20
2018-01-21T23:30:07.102Z,87.44
2018-01-21T23:32:35.388Z,87.64
2018-01-21T23:35:03.705Z,87.55
2018-01-21T23:37:32.755Z,87.55
2018-01-21T23:40:01.063Z,87.65
2018-01-21T23:42:29.456Z,87.68
2018-01-21T23:44:57.951Z,87.82
2018-01-21T23:47:26.283Z,87.83
2018-01-21T23:49:54.587Z,88.01
2018-01-21T23:52:22.942Z,88.12
2018-01-21T23:54:51.234Z,88.12
2018-01-21T23:57:19.550Z,88.08
2018-01-21T23:59:47.937Z,88.29
